Terminal Aerodrome Forecast
Issued by NWS

Current Version | Previous Version | Text Only | Print | Product List | Glossary On
Versions: 1 2 3 4 5 6 7 8 9 10 11 12 13 14 15 16 17 18 19 20 21
000
FTUS41 KPBZ 210534
TAFAGC
TAF
KAGC 210534Z 2106/2206 19004KT P6SM SCT120
     FM210900 18004KT 5SM BR BKN025
      TEMPO 2109/2112 2SM BR
     FM211600 18005KT P6SM BKN035
     FM220500 12004KT P6SM BKN050=

USA.gov is the U.S. government's official web portal to all federal, state and local government web resources and services.